sensor_id;sensor_type;location;lat;lon;timestamp;P1;durP1;ratioP1;P2;durP2;ratioP2
73951;SDS011;62304;47.662;18.324;2023-03-23T00:01:42;7.50;;;2.70;;
73951;SDS011;62304;47.662;18.324;2023-03-23T00:04:44;8.20;;;2.83;;
73951;SDS011;62304;47.662;18.324;2023-03-23T00:07:47;7.30;;;2.90;;
73951;SDS011;62304;47.662;18.324;2023-03-23T00:10:53;7.00;;;2.50;;
73951;SDS011;62304;47.662;18.324;2023-03-23T00:13:59;5.93;;;2.53;;
73951;SDS011;62304;47.662;18.324;2023-03-23T00:17:02;7.37;;;2.42;;
73951;SDS011;62304;47.662;18.324;2023-03-23T00:20:04;4.87;;;2.27;;
73951;SDS011;62304;47.662;18.324;2023-03-23T00:23:08;5.50;;;2.20;;
73951;SDS011;62304;47.662;18.324;2023-03-23T00:26:09;6.70;;;2.65;;
73951;SDS011;62304;47.662;18.324;2023-03-23T00:29:14;6.53;;;2.20;;
73951;SDS011;62304;47.662;18.324;2023-03-23T00:32:24;8.50;;;2.50;;
73951;SDS011;62304;47.662;18.324;2023-03-23T00:35:29;4.70;;;2.10;;
73951;SDS011;62304;47.662;18.324;2023-03-23T00:38:31;7.00;;;2.57;;
73951;SDS011;62304;47.662;18.324;2023-03-23T00:41:33;5.03;;;2.25;;
73951;SDS011;62304;47.662;18.324;2023-03-23T00:44:37;6.57;;;2.47;;
73951;SDS011;62304;47.662;18.324;2023-03-23T00:47:39;6.18;;;2.55;;
73951;SDS011;62304;47.662;18.324;2023-03-23T00:50:42;6.23;;;2.40;;
73951;SDS011;62304;47.662;18.324;2023-03-23T00:53:44;8.00;;;2.50;;
73951;SDS011;62304;47.662;18.324;2023-03-23T00:56:47;6.15;;;2.58;;
73951;SDS011;62304;47.662;18.324;2023-03-23T00:59:49;6.30;;;2.60;;
73951;SDS011;62304;47.662;18.324;2023-03-23T01:02:54;5.37;;;2.47;;
73951;SDS011;62304;47.662;18.324;2023-03-23T01:06:03;5.93;;;2.70;;
73951;SDS011;62304;47.662;18.324;2023-03-23T01:09:07;5.73;;;2.50;;
73951;SDS011;62304;47.662;18.324;2023-03-23T01:12:13;4.97;;;2.35;;
73951;SDS011;62304;47.662;18.324;2023-03-23T01:15:16;4.75;;;2.10;;
73951;SDS011;62304;47.662;18.324;2023-03-23T01:18:18;6.47;;;2.10;;
73951;SDS011;62304;47.662;18.324;2023-03-23T01:21:20;6.17;;;2.90;;
73951;SDS011;62304;47.662;18.324;2023-03-23T01:24:22;6.13;;;2.40;;
73951;SDS011;62304;47.662;18.324;2023-03-23T01:27:24;6.90;;;2.15;;
73951;SDS011;62304;47.662;18.324;2023-03-23T01:30:26;16.00;;;2.83;;
73951;SDS011;62304;47.662;18.324;2023-03-23T01:33:28;5.28;;;1.90;;
73951;SDS011;62304;47.662;18.324;2023-03-23T01:36:31;6.67;;;2.20;;
73951;SDS011;62304;47.662;18.324;2023-03-23T01:39:36;5.23;;;2.60;;
73951;SDS011;62304;47.662;18.324;2023-03-23T01:42:39;9.00;;;2.37;;
73951;SDS011;62304;47.662;18.324;2023-03-23T01:45:41;7.03;;;2.80;;
73951;SDS011;62304;47.662;18.324;2023-03-23T01:48:43;5.50;;;2.58;;
73951;SDS011;62304;47.662;18.324;2023-03-23T01:51:48;7.90;;;2.70;;
73951;SDS011;62304;47.662;18.324;2023-03-23T01:54:54;7.40;;;2.77;;
73951;SDS011;62304;47.662;18.324;2023-03-23T01:57:57;6.25;;;2.12;;
73951;SDS011;62304;47.662;18.324;2023-03-23T02:01:01;5.00;;;2.15;;
73951;SDS011;62304;47.662;18.324;2023-03-23T02:04:06;4.80;;;2.17;;
73951;SDS011;62304;47.662;18.324;2023-03-23T02:07:10;4.33;;;2.00;;
73951;SDS011;62304;47.662;18.324;2023-03-23T02:10:16;5.60;;;2.00;;
73951;SDS011;62304;47.662;18.324;2023-03-23T02:13:17;6.43;;;2.78;;
73951;SDS011;62304;47.662;18.324;2023-03-23T02:29:30;4.62;;;1.95;;
73951;SDS011;62304;47.662;18.324;2023-03-23T02:39:33;7.00;;;2.50;;
73951;SDS011;62304;47.662;18.324;2023-03-23T02:42:42;5.50;;;2.30;;
73951;SDS011;62304;47.662;18.324;2023-03-23T02:45:50;9.48;;;2.58;;
73951;SDS011;62304;47.662;18.324;2023-03-23T02:48:54;5.30;;;2.20;;
73951;SDS011;62304;47.662;18.324;2023-03-23T02:51:58;5.90;;;2.08;;
73951;SDS011;62304;47.662;18.324;2023-03-23T02:55:03;6.13;;;2.20;;
73951;SDS011;62304;47.662;18.324;2023-03-23T02:58:06;5.83;;;2.20;;
73951;SDS011;62304;47.662;18.324;2023-03-23T03:04:38;6.00;;;2.58;;
73951;SDS011;62304;47.662;18.324;2023-03-23T03:11:00;5.63;;;2.30;;
73951;SDS011;62304;47.662;18.324;2023-03-23T03:14:13;4.43;;;1.93;;
73951;SDS011;62304;47.662;18.324;2023-03-23T03:17:24;7.05;;;2.20;;
73951;SDS011;62304;47.662;18.324;2023-03-23T03:20:27;5.15;;;2.30;;
73951;SDS011;62304;47.662;18.324;2023-03-23T03:23:31;7.20;;;2.25;;
73951;SDS011;62304;47.662;18.324;2023-03-23T03:26:36;8.93;;;1.87;;
73951;SDS011;62304;47.662;18.324;2023-03-23T03:29:45;7.13;;;3.03;;
73951;SDS011;62304;47.662;18.324;2023-03-23T03:32:52;5.85;;;2.10;;
73951;SDS011;62304;47.662;18.324;2023-03-23T03:35:54;5.05;;;2.00;;
73951;SDS011;62304;47.662;18.324;2023-03-23T03:38:58;6.55;;;2.10;;
73951;SDS011;62304;47.662;18.324;2023-03-23T03:42:00;4.67;;;2.00;;
73951;SDS011;62304;47.662;18.324;2023-03-23T03:45:02;8.27;;;2.40;;
73951;SDS011;62304;47.662;18.324;2023-03-23T03:48:04;7.30;;;2.55;;
73951;SDS011;62304;47.662;18.324;2023-03-23T03:51:07;10.30;;;2.08;;
73951;SDS011;62304;47.662;18.324;2023-03-23T03:54:10;5.25;;;2.42;;
73951;SDS011;62304;47.662;18.324;2023-03-23T03:57:13;5.80;;;2.20;;
73951;SDS011;62304;47.662;18.324;2023-03-23T04:00:18;5.70;;;2.30;;
73951;SDS011;62304;47.662;18.324;2023-03-23T04:03:20;7.55;;;2.45;;
73951;SDS011;62304;47.662;18.324;2023-03-23T04:06:22;5.10;;;1.60;;
73951;SDS011;62304;47.662;18.324;2023-03-23T04:09:26;9.32;;;2.20;;
73951;SDS011;62304;47.662;18.324;2023-03-23T04:12:28;7.47;;;2.70;;
73951;SDS011;62304;47.662;18.324;2023-03-23T04:15:33;4.37;;;2.13;;
73951;SDS011;62304;47.662;18.324;2023-03-23T04:18:35;5.78;;;2.12;;
73951;SDS011;62304;47.662;18.324;2023-03-23T04:21:38;7.18;;;2.20;;
73951;SDS011;62304;47.662;18.324;2023-03-23T04:24:39;6.57;;;2.15;;
73951;SDS011;62304;47.662;18.324;2023-03-23T04:27:41;6.13;;;2.60;;
73951;SDS011;62304;47.662;18.324;2023-03-23T04:30:45;6.10;;;2.63;;
73951;SDS011;62304;47.662;18.324;2023-03-23T04:33:51;6.05;;;2.50;;
73951;SDS011;62304;47.662;18.324;2023-03-23T04:36:54;5.68;;;2.28;;
73951;SDS011;62304;47.662;18.324;2023-03-23T04:39:58;7.53;;;2.50;;
73951;SDS011;62304;47.662;18.324;2023-03-23T04:43:07;4.73;;;2.00;;
73951;SDS011;62304;47.662;18.324;2023-03-23T04:46:11;6.40;;;2.40;;
73951;SDS011;62304;47.662;18.324;2023-03-23T04:49:19;6.20;;;2.62;;
73951;SDS011;62304;47.662;18.324;2023-03-23T04:52:24;5.30;;;1.67;;
73951;SDS011;62304;47.662;18.324;2023-03-23T04:55:27;5.40;;;2.17;;
73951;SDS011;62304;47.662;18.324;2023-03-23T04:58:29;4.90;;;2.27;;
73951;SDS011;62304;47.662;18.324;2023-03-23T05:01:35;12.63;;;3.50;;
73951;SDS011;62304;47.662;18.324;2023-03-23T05:04:41;5.97;;;2.50;;
73951;SDS011;62304;47.662;18.324;2023-03-23T05:07:42;7.65;;;2.80;;
73951;SDS011;62304;47.662;18.324;2023-03-23T05:10:51;6.03;;;2.25;;
73951;SDS011;62304;47.662;18.324;2023-03-23T05:14:03;9.43;;;2.70;;
73951;SDS011;62304;47.662;18.324;2023-03-23T05:17:06;5.27;;;2.07;;
73951;SDS011;62304;47.662;18.324;2023-03-23T05:20:11;8.30;;;2.80;;
73951;SDS011;62304;47.662;18.324;2023-03-23T05:23:22;8.13;;;2.72;;
73951;SDS011;62304;47.662;18.324;2023-03-23T05:26:26;9.20;;;2.60;;
73951;SDS011;62304;47.662;18.324;2023-03-23T05:29:32;6.23;;;2.53;;
73951;SDS011;62304;47.662;18.324;2023-03-23T05:32:36;8.73;;;2.70;;
73951;SDS011;62304;47.662;18.324;2023-03-23T05:35:40;9.73;;;3.00;;
73951;SDS011;62304;47.662;18.324;2023-03-23T05:38:41;6.85;;;2.97;;
73951;SDS011;62304;47.662;18.324;2023-03-23T05:41:47;6.12;;;1.65;;
73951;SDS011;62304;47.662;18.324;2023-03-23T05:44:49;7.53;;;3.00;;
73951;SDS011;62304;47.662;18.324;2023-03-23T05:47:52;8.97;;;2.83;;
73951;SDS011;62304;47.662;18.324;2023-03-23T05:50:54;4.95;;;2.40;;
73951;SDS011;62304;47.662;18.324;2023-03-23T05:53:56;10.32;;;2.60;;
73951;SDS011;62304;47.662;18.324;2023-03-23T05:56:58;6.87;;;2.40;;
73951;SDS011;62304;47.662;18.324;2023-03-23T06:00:00;7.83;;;2.50;;
73951;SDS011;62304;47.662;18.324;2023-03-23T06:03:16;4.83;;;2.10;;
73951;SDS011;62304;47.662;18.324;2023-03-23T06:06:18;6.62;;;2.83;;
73951;SDS011;62304;47.662;18.324;2023-03-23T06:09:21;6.03;;;2.65;;
73951;SDS011;62304;47.662;18.324;2023-03-23T06:12:26;7.68;;;2.85;;
73951;SDS011;62304;47.662;18.324;2023-03-23T06:15:30;7.03;;;3.03;;
73951;SDS011;62304;47.662;18.324;2023-03-23T06:18:35;7.40;;;2.63;;
73951;SDS011;62304;47.662;18.324;2023-03-23T06:21:38;7.28;;;3.15;;
73951;SDS011;62304;47.662;18.324;2023-03-23T06:24:41;10.02;;;3.30;;
73951;SDS011;62304;47.662;18.324;2023-03-23T06:27:43;6.93;;;3.00;;
73951;SDS011;62304;47.662;18.324;2023-03-23T06:30:47;8.03;;;4.47;;
73951;SDS011;62304;47.662;18.324;2023-03-23T06:33:48;8.57;;;3.40;;
73951;SDS011;62304;47.662;18.324;2023-03-23T06:36:52;7.70;;;3.28;;
73951;SDS011;62304;47.662;18.324;2023-03-23T06:39:55;6.50;;;2.80;;
73951;SDS011;62304;47.662;18.324;2023-03-23T06:42:57;6.30;;;3.20;;
73951;SDS011;62304;47.662;18.324;2023-03-23T06:46:01;6.50;;;3.10;;
73951;SDS011;62304;47.662;18.324;2023-03-23T06:49:05;6.40;;;2.60;;
73951;SDS011;62304;47.662;18.324;2023-03-23T06:52:09;5.75;;;2.83;;
73951;SDS011;62304;47.662;18.324;2023-03-23T06:55:11;14.02;;;3.78;;
73951;SDS011;62304;47.662;18.324;2023-03-23T06:58:14;8.68;;;2.70;;
73951;SDS011;62304;47.662;18.324;2023-03-23T07:01:16;8.67;;;2.80;;
73951;SDS011;62304;47.662;18.324;2023-03-23T07:04:19;5.40;;;2.43;;
73951;SDS011;62304;47.662;18.324;2023-03-23T07:07:21;4.72;;;2.08;;
73951;SDS011;62304;47.662;18.324;2023-03-23T07:10:24;6.65;;;2.97;;
73951;SDS011;62304;47.662;18.324;2023-03-23T07:13:26;6.50;;;2.95;;
73951;SDS011;62304;47.662;18.324;2023-03-23T07:16:29;6.80;;;3.40;;
73951;SDS011;62304;47.662;18.324;2023-03-23T07:19:32;6.13;;;2.80;;
73951;SDS011;62304;47.662;18.324;2023-03-23T07:22:34;5.85;;;2.58;;
73951;SDS011;62304;47.662;18.324;2023-03-23T07:25:38;7.35;;;3.10;;
73951;SDS011;62304;47.662;18.324;2023-03-23T07:28:41;5.05;;;2.25;;
73951;SDS011;62304;47.662;18.324;2023-03-23T07:31:44;6.20;;;2.90;;
73951;SDS011;62304;47.662;18.324;2023-03-23T07:34:46;5.93;;;3.00;;
73951;SDS011;62304;47.662;18.324;2023-03-23T07:37:48;6.60;;;2.78;;
73951;SDS011;62304;47.662;18.324;2023-03-23T07:40:51;6.43;;;2.90;;
73951;SDS011;62304;47.662;18.324;2023-03-23T07:43:53;6.18;;;3.03;;
73951;SDS011;62304;47.662;18.324;2023-03-23T07:46:56;5.47;;;2.70;;
73951;SDS011;62304;47.662;18.324;2023-03-23T07:50:01;5.70;;;2.83;;
73951;SDS011;62304;47.662;18.324;2023-03-23T07:53:03;6.55;;;2.70;;
73951;SDS011;62304;47.662;18.324;2023-03-23T07:56:07;5.78;;;2.58;;
73951;SDS011;62304;47.662;18.324;2023-03-23T07:59:11;6.43;;;3.00;;
73951;SDS011;62304;47.662;18.324;2023-03-23T08:02:14;8.43;;;3.60;;
73951;SDS011;62304;47.662;18.324;2023-03-23T08:05:16;8.73;;;3.43;;
73951;SDS011;62304;47.662;18.324;2023-03-23T08:08:20;5.40;;;2.67;;
73951;SDS011;62304;47.662;18.324;2023-03-23T08:11:23;8.00;;;3.47;;
73951;SDS011;62304;47.662;18.324;2023-03-23T08:14:25;7.03;;;3.20;;
73951;SDS011;62304;47.662;18.324;2023-03-23T08:17:30;14.37;;;3.40;;
73951;SDS011;62304;47.662;18.324;2023-03-23T08:20:32;7.20;;;2.70;;
73951;SDS011;62304;47.662;18.324;2023-03-23T08:23:37;7.28;;;2.70;;
73951;SDS011;62304;47.662;18.324;2023-03-23T08:26:39;7.40;;;3.12;;
73951;SDS011;62304;47.662;18.324;2023-03-23T08:29:46;7.28;;;3.00;;
73951;SDS011;62304;47.662;18.324;2023-03-23T08:32:49;8.00;;;3.50;;
73951;SDS011;62304;47.662;18.324;2023-03-23T08:35:56;12.13;;;3.33;;
73951;SDS011;62304;47.662;18.324;2023-03-23T08:38:59;8.55;;;3.00;;
73951;SDS011;62304;47.662;18.324;2023-03-23T08:42:02;7.78;;;2.90;;
73951;SDS011;62304;47.662;18.324;2023-03-23T08:45:06;6.97;;;3.33;;
73951;SDS011;62304;47.662;18.324;2023-03-23T08:48:09;5.63;;;2.77;;
73951;SDS011;62304;47.662;18.324;2023-03-23T08:51:12;10.77;;;3.43;;
73951;SDS011;62304;47.662;18.324;2023-03-23T08:54:15;9.75;;;3.12;;
73951;SDS011;62304;47.662;18.324;2023-03-23T08:57:18;8.38;;;3.35;;
73951;SDS011;62304;47.662;18.324;2023-03-23T09:00:21;6.45;;;3.00;;
73951;SDS011;62304;47.662;18.324;2023-03-23T09:03:27;8.13;;;2.50;;
73951;SDS011;62304;47.662;18.324;2023-03-23T09:06:30;6.53;;;2.27;;
73951;SDS011;62304;47.662;18.324;2023-03-23T09:09:32;4.75;;;2.28;;
73951;SDS011;62304;47.662;18.324;2023-03-23T09:12:35;5.60;;;2.50;;
73951;SDS011;62304;47.662;18.324;2023-03-23T09:15:37;5.30;;;2.70;;
73951;SDS011;62304;47.662;18.324;2023-03-23T09:18:39;4.07;;;2.17;;
73951;SDS011;62304;47.662;18.324;2023-03-23T09:21:41;5.53;;;1.70;;
73951;SDS011;62304;47.662;18.324;2023-03-23T09:24:44;4.12;;;1.55;;
73951;SDS011;62304;47.662;18.324;2023-03-23T09:27:50;7.40;;;1.80;;
73951;SDS011;62304;47.662;18.324;2023-03-23T09:30:55;4.62;;;1.90;;
73951;SDS011;62304;47.662;18.324;2023-03-23T09:34:00;3.87;;;1.97;;
73951;SDS011;62304;47.662;18.324;2023-03-23T09:37:04;4.87;;;1.50;;
73951;SDS011;62304;47.662;18.324;2023-03-23T09:40:10;6.12;;;1.80;;
73951;SDS011;62304;47.662;18.324;2023-03-23T09:50:14;3.53;;;1.50;;
73951;SDS011;62304;47.662;18.324;2023-03-23T09:53:22;5.13;;;1.90;;
73951;SDS011;62304;47.662;18.324;2023-03-23T09:56:30;4.65;;;1.85;;
73951;SDS011;62304;47.662;18.324;2023-03-23T09:59:35;4.93;;;1.85;;
73951;SDS011;62304;47.662;18.324;2023-03-23T10:05:58;3.67;;;1.70;;
73951;SDS011;62304;47.662;18.324;2023-03-23T10:09:01;5.43;;;2.23;;
73951;SDS011;62304;47.662;18.324;2023-03-23T10:12:14;3.58;;;1.62;;
73951;SDS011;62304;47.662;18.324;2023-03-23T10:15:27;5.87;;;1.75;;
73951;SDS011;62304;47.662;18.324;2023-03-23T10:18:41;4.28;;;1.58;;
73951;SDS011;62304;47.662;18.324;2023-03-23T10:21:50;5.10;;;1.70;;
73951;SDS011;62304;47.662;18.324;2023-03-23T10:24:57;4.37;;;2.13;;
73951;SDS011;62304;47.662;18.324;2023-03-23T10:28:14;4.68;;;1.87;;
73951;SDS011;62304;47.662;18.324;2023-03-23T10:31:34;4.80;;;1.85;;
73951;SDS011;62304;47.662;18.324;2023-03-23T10:37:47;3.93;;;1.53;;
73951;SDS011;62304;47.662;18.324;2023-03-23T10:40:56;4.03;;;1.80;;
73951;SDS011;62304;47.662;18.324;2023-03-23T10:44:17;3.55;;;1.60;;
73951;SDS011;62304;47.662;18.324;2023-03-23T10:47:21;4.80;;;2.03;;
73951;SDS011;62304;47.662;18.324;2023-03-23T10:50:30;7.43;;;1.95;;
73951;SDS011;62304;47.662;18.324;2023-03-23T10:53:38;4.53;;;2.20;;
73951;SDS011;62304;47.662;18.324;2023-03-23T10:56:45;3.93;;;1.77;;
73951;SDS011;62304;47.662;18.324;2023-03-23T10:59:46;4.18;;;1.83;;
73951;SDS011;62304;47.662;18.324;2023-03-23T11:06:29;5.18;;;2.08;;
73951;SDS011;62304;47.662;18.324;2023-03-23T11:09:38;6.30;;;2.20;;
73951;SDS011;62304;47.662;18.324;2023-03-23T11:12:53;3.27;;;1.63;;
73951;SDS011;62304;47.662;18.324;2023-03-23T11:15:59;5.28;;;2.42;;
73951;SDS011;62304;47.662;18.324;2023-03-23T11:19:16;6.53;;;2.37;;
73951;SDS011;62304;47.662;18.324;2023-03-23T11:22:32;4.20;;;2.37;;
73951;SDS011;62304;47.662;18.324;2023-03-23T11:25:50;5.57;;;2.47;;
73951;SDS011;62304;47.662;18.324;2023-03-23T11:28:57;4.10;;;2.43;;
73951;SDS011;62304;47.662;18.324;2023-03-23T11:32:09;5.05;;;2.55;;
73951;SDS011;62304;47.662;18.324;2023-03-23T11:35:18;4.50;;;2.20;;
73951;SDS011;62304;47.662;18.324;2023-03-23T11:38:23;3.95;;;2.08;;
73951;SDS011;62304;47.662;18.324;2023-03-23T11:41:31;4.77;;;2.70;;
73951;SDS011;62304;47.662;18.324;2023-03-23T11:44:40;3.87;;;2.23;;
73951;SDS011;62304;47.662;18.324;2023-03-23T11:47:50;6.37;;;2.60;;
73951;SDS011;62304;47.662;18.324;2023-03-23T11:50:58;3.85;;;2.22;;
73951;SDS011;62304;47.662;18.324;2023-03-23T11:54:23;4.47;;;2.55;;
73951;SDS011;62304;47.662;18.324;2023-03-23T11:57:34;5.83;;;2.57;;
73951;SDS011;62304;47.662;18.324;2023-03-23T12:00:36;5.80;;;2.77;;
73951;SDS011;62304;47.662;18.324;2023-03-23T12:03:52;4.50;;;2.20;;
73951;SDS011;62304;47.662;18.324;2023-03-23T12:07:19;4.25;;;2.50;;
73951;SDS011;62304;47.662;18.324;2023-03-23T12:10:47;4.80;;;2.42;;
73951;SDS011;62304;47.662;18.324;2023-03-23T12:17:43;4.07;;;1.53;;
73951;SDS011;62304;47.662;18.324;2023-03-23T12:31:01;3.47;;;1.90;;
73951;SDS011;62304;47.662;18.324;2023-03-23T12:34:19;4.40;;;2.03;;
73951;SDS011;62304;47.662;18.324;2023-03-23T12:43:59;5.87;;;3.22;;
73951;SDS011;62304;47.662;18.324;2023-03-23T12:50:17;5.23;;;1.97;;
73951;SDS011;62304;47.662;18.324;2023-03-23T12:53:26;5.80;;;2.28;;
73951;SDS011;62304;47.662;18.324;2023-03-23T12:56:43;4.75;;;2.37;;
73951;SDS011;62304;47.662;18.324;2023-03-23T13:03:15;6.93;;;2.80;;
73951;SDS011;62304;47.662;18.324;2023-03-23T13:09:42;6.80;;;2.60;;
73951;SDS011;62304;47.662;18.324;2023-03-23T13:12:46;4.45;;;2.53;;
73951;SDS011;62304;47.662;18.324;2023-03-23T13:22:20;3.73;;;2.13;;
73951;SDS011;62304;47.662;18.324;2023-03-23T13:31:51;3.75;;;2.17;;
73951;SDS011;62304;47.662;18.324;2023-03-23T13:34:53;6.03;;;2.57;;
73951;SDS011;62304;47.662;18.324;2023-03-23T13:37:55;5.63;;;2.30;;
73951;SDS011;62304;47.662;18.324;2023-03-23T13:40:57;4.10;;;2.15;;
73951;SDS011;62304;47.662;18.324;2023-03-23T13:44:19;4.82;;;2.60;;
73951;SDS011;62304;47.662;18.324;2023-03-23T13:47:40;7.07;;;2.42;;
73951;SDS011;62304;47.662;18.324;2023-03-23T13:50:44;3.73;;;2.00;;
73951;SDS011;62304;47.662;18.324;2023-03-23T13:54:04;4.57;;;2.63;;
73951;SDS011;62304;47.662;18.324;2023-03-23T14:03:40;5.20;;;2.17;;
73951;SDS011;62304;47.662;18.324;2023-03-23T14:06:45;3.87;;;2.10;;
73951;SDS011;62304;47.662;18.324;2023-03-23T14:09:49;4.17;;;2.10;;
73951;SDS011;62304;47.662;18.324;2023-03-23T14:12:52;7.00;;;2.65;;
73951;SDS011;62304;47.662;18.324;2023-03-23T14:18:59;4.00;;;2.42;;
73951;SDS011;62304;47.662;18.324;2023-03-23T14:22:02;4.80;;;2.70;;
73951;SDS011;62304;47.662;18.324;2023-03-23T14:25:11;7.00;;;2.70;;
73951;SDS011;62304;47.662;18.324;2023-03-23T14:28:21;4.07;;;2.35;;
73951;SDS011;62304;47.662;18.324;2023-03-23T14:31:24;4.22;;;2.40;;
73951;SDS011;62304;47.662;18.324;2023-03-23T14:34:29;4.75;;;2.78;;
73951;SDS011;62304;47.662;18.324;2023-03-23T14:37:33;5.20;;;2.50;;
73951;SDS011;62304;47.662;18.324;2023-03-23T14:40:37;5.70;;;2.63;;
73951;SDS011;62304;47.662;18.324;2023-03-23T14:43:38;4.90;;;2.00;;
73951;SDS011;62304;47.662;18.324;2023-03-23T14:46:42;8.88;;;2.20;;
73951;SDS011;62304;47.662;18.324;2023-03-23T14:49:45;6.55;;;2.83;;
73951;SDS011;62304;47.662;18.324;2023-03-23T14:52:48;8.53;;;2.63;;
73951;SDS011;62304;47.662;18.324;2023-03-23T14:55:51;6.17;;;2.40;;
73951;SDS011;62304;47.662;18.324;2023-03-23T14:59:00;4.85;;;2.10;;
73951;SDS011;62304;47.662;18.324;2023-03-23T15:02:05;5.45;;;2.87;;
73951;SDS011;62304;47.662;18.324;2023-03-23T15:05:25;6.28;;;2.80;;
73951;SDS011;62304;47.662;18.324;2023-03-23T15:08:30;4.87;;;2.40;;
73951;SDS011;62304;47.662;18.324;2023-03-23T15:11:35;6.37;;;2.30;;
73951;SDS011;62304;47.662;18.324;2023-03-23T15:14:45;6.15;;;2.45;;
73951;SDS011;62304;47.662;18.324;2023-03-23T15:17:52;5.18;;;2.47;;
73951;SDS011;62304;47.662;18.324;2023-03-23T15:20:54;5.25;;;2.30;;
73951;SDS011;62304;47.662;18.324;2023-03-23T15:23:56;5.97;;;2.90;;
73951;SDS011;62304;47.662;18.324;2023-03-23T15:33:38;7.10;;;2.50;;
73951;SDS011;62304;47.662;18.324;2023-03-23T15:36:41;7.10;;;2.00;;
73951;SDS011;62304;47.662;18.324;2023-03-23T15:39:45;4.70;;;2.53;;
73951;SDS011;62304;47.662;18.324;2023-03-23T15:42:48;3.67;;;1.80;;
73951;SDS011;62304;47.662;18.324;2023-03-23T15:46:02;5.12;;;2.08;;
73951;SDS011;62304;47.662;18.324;2023-03-23T15:49:10;7.12;;;2.75;;
73951;SDS011;62304;47.662;18.324;2023-03-23T15:52:14;4.37;;;2.20;;
73951;SDS011;62304;47.662;18.324;2023-03-23T15:55:23;5.97;;;2.90;;
73951;SDS011;62304;47.662;18.324;2023-03-23T15:58:30;4.93;;;2.73;;
73951;SDS011;62304;47.662;18.324;2023-03-23T16:01:34;9.98;;;2.80;;
73951;SDS011;62304;47.662;18.324;2023-03-23T16:04:41;8.60;;;3.40;;
73951;SDS011;62304;47.662;18.324;2023-03-23T16:07:48;8.60;;;3.50;;
73951;SDS011;62304;47.662;18.324;2023-03-23T16:10:52;6.50;;;3.43;;
73951;SDS011;62304;47.662;18.324;2023-03-23T16:13:55;5.77;;;3.17;;
73951;SDS011;62304;47.662;18.324;2023-03-23T16:16:59;5.47;;;2.40;;
73951;SDS011;62304;47.662;18.324;2023-03-23T16:20:04;8.18;;;2.70;;
73951;SDS011;62304;47.662;18.324;2023-03-23T16:23:13;6.10;;;2.60;;
73951;SDS011;62304;47.662;18.324;2023-03-23T16:26:16;5.33;;;2.87;;
73951;SDS011;62304;47.662;18.324;2023-03-23T16:29:20;7.67;;;3.00;;
73951;SDS011;62304;47.662;18.324;2023-03-23T16:32:43;7.30;;;2.83;;
73951;SDS011;62304;47.662;18.324;2023-03-23T16:35:48;6.40;;;2.90;;
73951;SDS011;62304;47.662;18.324;2023-03-23T16:38:52;4.53;;;2.80;;
73951;SDS011;62304;47.662;18.324;2023-03-23T16:41:56;5.83;;;2.97;;
73951;SDS011;62304;47.662;18.324;2023-03-23T16:44:59;6.23;;;3.67;;
73951;SDS011;62304;47.662;18.324;2023-03-23T16:48:02;14.10;;;5.22;;
73951;SDS011;62304;47.662;18.324;2023-03-23T16:51:07;12.20;;;5.40;;
73951;SDS011;62304;47.662;18.324;2023-03-23T16:54:10;14.87;;;6.37;;
73951;SDS011;62304;47.662;18.324;2023-03-23T16:57:13;9.13;;;4.10;;
73951;SDS011;62304;47.662;18.324;2023-03-23T17:00:16;11.53;;;5.10;;
73951;SDS011;62304;47.662;18.324;2023-03-23T17:03:26;12.90;;;4.75;;
73951;SDS011;62304;47.662;18.324;2023-03-23T17:06:29;11.07;;;3.72;;
73951;SDS011;62304;47.662;18.324;2023-03-23T17:09:32;8.32;;;4.47;;
73951;SDS011;62304;47.662;18.324;2023-03-23T17:12:35;9.43;;;4.93;;
73951;SDS011;62304;47.662;18.324;2023-03-23T17:15:39;6.67;;;4.13;;
73951;SDS011;62304;47.662;18.324;2023-03-23T20:56:18;11.60;;;5.47;;
73951;SDS011;62304;47.662;18.324;2023-03-23T20:59:25;12.63;;;5.37;;
73951;SDS011;62304;47.662;18.324;2023-03-23T21:02:29;10.10;;;4.80;;
73951;SDS011;62304;47.662;18.324;2023-03-23T21:05:39;11.83;;;5.70;;
73951;SDS011;62304;47.662;18.324;2023-03-23T21:08:44;10.60;;;4.47;;
73951;SDS011;62304;47.662;18.324;2023-03-23T21:15:13;12.40;;;6.30;;
73951;SDS011;62304;47.662;18.324;2023-03-23T21:18:18;20.08;;;10.90;;
73951;SDS011;62304;47.662;18.324;2023-03-23T21:21:21;29.93;;;13.37;;
73951;SDS011;62304;47.662;18.324;2023-03-23T21:24:30;34.23;;;14.23;;
73951;SDS011;62304;47.662;18.324;2023-03-23T21:27:33;35.95;;;14.15;;
73951;SDS011;62304;47.662;18.324;2023-03-23T21:30:38;22.95;;;10.43;;
73951;SDS011;62304;47.662;18.324;2023-03-23T21:33:48;16.05;;;6.80;;
73951;SDS011;62304;47.662;18.324;2023-03-23T21:36:51;11.13;;;5.27;;
73951;SDS011;62304;47.662;18.324;2023-03-23T21:39:55;11.53;;;5.20;;
73951;SDS011;62304;47.662;18.324;2023-03-23T21:42:58;11.90;;;5.85;;
73951;SDS011;62304;47.662;18.324;2023-03-23T21:46:02;18.17;;;6.68;;
73951;SDS011;62304;47.662;18.324;2023-03-23T21:49:08;12.07;;;6.18;;
73951;SDS011;62304;47.662;18.324;2023-03-23T21:52:15;10.07;;;5.50;;
73951;SDS011;62304;47.662;18.324;2023-03-23T21:55:18;10.87;;;5.30;;
73951;SDS011;62304;47.662;18.324;2023-03-23T21:58:22;14.30;;;5.80;;
73951;SDS011;62304;47.662;18.324;2023-03-23T22:01:28;9.35;;;5.28;;
73951;SDS011;62304;47.662;18.324;2023-03-23T22:04:32;8.20;;;4.30;;
73951;SDS011;62304;47.662;18.324;2023-03-23T22:07:34;7.10;;;4.10;;
73951;SDS011;62304;47.662;18.324;2023-03-23T22:10:41;7.67;;;3.90;;
73951;SDS011;62304;47.662;18.324;2023-03-23T22:14:03;8.05;;;3.97;;
73951;SDS011;62304;47.662;18.324;2023-03-23T22:17:07;9.20;;;4.25;;
73951;SDS011;62304;47.662;18.324;2023-03-23T22:20:11;12.20;;;4.20;;
73951;SDS011;62304;47.662;18.324;2023-03-23T22:23:15;6.63;;;3.63;;
73951;SDS011;62304;47.662;18.324;2023-03-23T22:26:18;8.97;;;3.80;;
73951;SDS011;62304;47.662;18.324;2023-03-23T22:29:22;7.72;;;3.58;;
73951;SDS011;62304;47.662;18.324;2023-03-23T22:32:25;6.70;;;3.53;;
73951;SDS011;62304;47.662;18.324;2023-03-23T22:35:29;7.07;;;3.30;;
73951;SDS011;62304;47.662;18.324;2023-03-23T22:38:35;6.80;;;3.50;;
73951;SDS011;62304;47.662;18.324;2023-03-23T22:41:40;9.80;;;4.10;;
73951;SDS011;62304;47.662;18.324;2023-03-23T22:44:43;6.60;;;3.60;;
73951;SDS011;62304;47.662;18.324;2023-03-23T22:47:46;9.35;;;3.80;;
73951;SDS011;62304;47.662;18.324;2023-03-23T22:50:49;8.27;;;4.22;;
73951;SDS011;62304;47.662;18.324;2023-03-23T22:53:53;6.57;;;3.30;;
73951;SDS011;62304;47.662;18.324;2023-03-23T22:56:58;8.07;;;3.60;;
73951;SDS011;62304;47.662;18.324;2023-03-23T23:00:03;8.43;;;3.58;;
73951;SDS011;62304;47.662;18.324;2023-03-23T23:03:09;6.22;;;3.10;;
73951;SDS011;62304;47.662;18.324;2023-03-23T23:06:14;10.20;;;4.05;;
73951;SDS011;62304;47.662;18.324;2023-03-23T23:09:18;7.33;;;3.47;;
73951;SDS011;62304;47.662;18.324;2023-03-23T23:12:21;6.27;;;3.27;;
73951;SDS011;62304;47.662;18.324;2023-03-23T23:15:25;6.65;;;3.70;;
73951;SDS011;62304;47.662;18.324;2023-03-23T23:18:29;8.93;;;3.37;;
73951;SDS011;62304;47.662;18.324;2023-03-23T23:21:34;6.57;;;3.00;;
73951;SDS011;62304;47.662;18.324;2023-03-23T23:24:37;7.77;;;3.30;;
73951;SDS011;62304;47.662;18.324;2023-03-23T23:27:40;6.50;;;2.87;;
73951;SDS011;62304;47.662;18.324;2023-03-23T23:30:43;6.87;;;3.20;;
73951;SDS011;62304;47.662;18.324;2023-03-23T23:33:47;7.30;;;3.22;;
73951;SDS011;62304;47.662;18.324;2023-03-23T23:36:51;7.00;;;3.58;;
73951;SDS011;62304;47.662;18.324;2023-03-23T23:39:54;8.57;;;3.37;;
73951;SDS011;62304;47.662;18.324;2023-03-23T23:42:57;7.60;;;3.40;;